Skip Navigation LinksHome page > Weather > Current weather Skip Navigation Links

Current Weather

Indira Gandhi Intl Apt, New Delhi, India

For information only: do not use for flight planning or navigation.
Latest weather
Observation time Thursday, August 28, 2014 9:00 AM IST
Local time Thursday, August 28, 2014 10:52 AM IST
Flight conditions Instrument Meteorological Conditions
Winds
Wind direction Northwest (320°)
Wind speed 10 mph
Visibility 2.5 mi.
Present weather haze
Sky condition
Ceiling unlimited
Cloud layer few clouds 3,500 ft.
Cloud layer scattered clouds 10,000 ft.
Temperature 86°F
Dewpoint 72°F
Altimeter 29.74 in.Hg
Derived measurements
Relative humidity 62%
Heat index 92°F
Density altitude 3050 ft.
Remarks
No significant changes expected in the next two hours.
METAR VIDP 280330Z 32009KT 4000 HZ FEW035 SCT100 30/22 Q1007 NOSIG

Settings

Location code

InnerDrive.Weather 4.0.5341.0 Release CLR 4.0.30319.34014
Copyright ©2014 Inner Drive Technology. All rights reserved. Portions Copyright ©1986-2014 David Braverman.

Find weather

Site navigation


Skip Navigation Links

Place info

Page info

PayPal - The safer, easier way to pay online!

Return home.

Copyright ©2014 Inner Drive Technology. Purveyors of fine, hand-crafted computer software. Page printed 2014-08-28T05:22:27 UTC.